sensor_id;sensor_type;location;lat;lon;timestamp;temperature;humidity
22035;DHT22;11181;51.002;4.356;2023-02-08T00:01:10;4.30;99.90
22035;DHT22;11181;51.002;4.356;2023-02-08T00:03:37;4.30;99.90
22035;DHT22;11181;51.002;4.356;2023-02-08T00:06:05;4.30;99.90
22035;DHT22;11181;51.002;4.356;2023-02-08T00:08:33;4.20;99.90
22035;DHT22;11181;51.002;4.356;2023-02-08T00:11:02;4.20;99.90
22035;DHT22;11181;51.002;4.356;2023-02-08T00:13:31;4.10;99.90
22035;DHT22;11181;51.002;4.356;2023-02-08T00:15:58;4.10;99.90
22035;DHT22;11181;51.002;4.356;2023-02-08T00:18:26;4.20;99.90
22035;DHT22;11181;51.002;4.356;2023-02-08T00:20:53;4.20;99.90
22035;DHT22;11181;51.002;4.356;2023-02-08T00:23:22;4.10;99.90
22035;DHT22;11181;51.002;4.356;2023-02-08T00:25:49;4.10;99.90
22035;DHT22;11181;51.002;4.356;2023-02-08T00:28:17;4.20;99.90
22035;DHT22;11181;51.002;4.356;2023-02-08T00:30:45;4.10;99.90
22035;DHT22;11181;51.002;4.356;2023-02-08T00:33:12;4.10;99.90
22035;DHT22;11181;51.002;4.356;2023-02-08T00:35:39;4.10;99.90
22035;DHT22;11181;51.002;4.356;2023-02-08T00:38:07;4.00;99.90
22035;DHT22;11181;51.002;4.356;2023-02-08T00:40:34;4.00;99.90
22035;DHT22;11181;51.002;4.356;2023-02-08T00:43:01;3.90;99.90
22035;DHT22;11181;51.002;4.356;2023-02-08T00:45:28;3.80;99.90
22035;DHT22;11181;51.002;4.356;2023-02-08T00:47:56;3.80;99.90
22035;DHT22;11181;51.002;4.356;2023-02-08T00:50:23;3.80;99.90
22035;DHT22;11181;51.002;4.356;2023-02-08T00:52:50;3.90;99.90
22035;DHT22;11181;51.002;4.356;2023-02-08T00:55:17;3.80;99.90
22035;DHT22;11181;51.002;4.356;2023-02-08T00:57:44;3.90;99.90
22035;DHT22;11181;51.002;4.356;2023-02-08T01:00:12;3.80;99.90
22035;DHT22;11181;51.002;4.356;2023-02-08T01:02:39;3.70;99.90
22035;DHT22;11181;51.002;4.356;2023-02-08T01:05:07;3.70;99.90
22035;DHT22;11181;51.002;4.356;2023-02-08T01:07:35;3.70;99.90
22035;DHT22;11181;51.002;4.356;2023-02-08T01:10:03;3.60;99.90
22035;DHT22;11181;51.002;4.356;2023-02-08T01:12:30;3.60;99.90
22035;DHT22;11181;51.002;4.356;2023-02-08T01:14:57;3.60;99.90
22035;DHT22;11181;51.002;4.356;2023-02-08T01:17:24;3.60;99.90
22035;DHT22;11181;51.002;4.356;2023-02-08T01:19:51;3.60;99.90
22035;DHT22;11181;51.002;4.356;2023-02-08T01:22:19;3.70;99.90
22035;DHT22;11181;51.002;4.356;2023-02-08T01:24:46;3.80;99.90
22035;DHT22;11181;51.002;4.356;2023-02-08T01:27:16;3.80;99.90
22035;DHT22;11181;51.002;4.356;2023-02-08T01:29:43;3.70;99.90
22035;DHT22;11181;51.002;4.356;2023-02-08T01:32:10;3.70;99.90
22035;DHT22;11181;51.002;4.356;2023-02-08T01:34:37;3.70;99.90
22035;DHT22;11181;51.002;4.356;2023-02-08T01:37:04;3.70;99.90
22035;DHT22;11181;51.002;4.356;2023-02-08T01:39:32;3.70;99.90
22035;DHT22;11181;51.002;4.356;2023-02-08T01:41:59;3.70;99.90
22035;DHT22;11181;51.002;4.356;2023-02-08T01:45:15;3.70;99.90
22035;DHT22;11181;51.002;4.356;2023-02-08T01:47:49;3.70;99.90
22035;DHT22;11181;51.002;4.356;2023-02-08T01:50:19;3.70;99.90
22035;DHT22;11181;51.002;4.356;2023-02-08T01:52:47;3.70;99.90
22035;DHT22;11181;51.002;4.356;2023-02-08T01:55:19;3.70;99.90
22035;DHT22;11181;51.002;4.356;2023-02-08T01:57:50;3.70;99.90
22035;DHT22;11181;51.002;4.356;2023-02-08T02:00:21;3.60;99.90
22035;DHT22;11181;51.002;4.356;2023-02-08T02:02:51;3.60;99.90
22035;DHT22;11181;51.002;4.356;2023-02-08T02:05:20;3.60;99.90
22035;DHT22;11181;51.002;4.356;2023-02-08T02:07:48;3.60;99.90
22035;DHT22;11181;51.002;4.356;2023-02-08T02:10:22;3.50;99.90
22035;DHT22;11181;51.002;4.356;2023-02-08T02:12:51;3.50;99.90
22035;DHT22;11181;51.002;4.356;2023-02-08T02:15:19;3.40;99.90
22035;DHT22;11181;51.002;4.356;2023-02-08T02:17:46;3.40;99.90
22035;DHT22;11181;51.002;4.356;2023-02-08T02:20:19;3.40;99.90
22035;DHT22;11181;51.002;4.356;2023-02-08T02:23:18;3.40;99.90
22035;DHT22;11181;51.002;4.356;2023-02-08T02:26:10;3.40;99.90
22035;DHT22;11181;51.002;4.356;2023-02-08T02:29:00;3.30;99.90
22035;DHT22;11181;51.002;4.356;2023-02-08T02:32:03;3.30;99.90
22035;DHT22;11181;51.002;4.356;2023-02-08T02:34:38;3.30;99.90
22035;DHT22;11181;51.002;4.356;2023-02-08T02:37:14;3.30;99.90
22035;DHT22;11181;51.002;4.356;2023-02-08T02:39:50;3.30;99.90
22035;DHT22;11181;51.002;4.356;2023-02-08T02:42:24;3.20;99.90
22035;DHT22;11181;51.002;4.356;2023-02-08T02:45:14;3.20;99.90
22035;DHT22;11181;51.002;4.356;2023-02-08T02:47:52;3.20;99.90
22035;DHT22;11181;51.002;4.356;2023-02-08T02:50:25;3.10;99.90
22035;DHT22;11181;51.002;4.356;2023-02-08T02:52:58;3.10;99.90
22035;DHT22;11181;51.002;4.356;2023-02-08T02:55:28;3.00;99.90
22035;DHT22;11181;51.002;4.356;2023-02-08T02:57:59;3.00;99.90
22035;DHT22;11181;51.002;4.356;2023-02-08T03:00:28;3.00;99.90
22035;DHT22;11181;51.002;4.356;2023-02-08T03:02:58;2.90;99.90
22035;DHT22;11181;51.002;4.356;2023-02-08T03:05:25;3.00;99.90
22035;DHT22;11181;51.002;4.356;2023-02-08T03:08:06;2.90;99.90
22035;DHT22;11181;51.002;4.356;2023-02-08T03:13:47;3.00;99.90
22035;DHT22;11181;51.002;4.356;2023-02-08T03:16:18;3.00;99.90
22035;DHT22;11181;51.002;4.356;2023-02-08T03:18:57;2.90;99.90
22035;DHT22;11181;51.002;4.356;2023-02-08T03:21:39;2.90;99.90
22035;DHT22;11181;51.002;4.356;2023-02-08T03:24:19;2.80;99.90
22035;DHT22;11181;51.002;4.356;2023-02-08T03:26:53;2.80;99.90
22035;DHT22;11181;51.002;4.356;2023-02-08T03:29:27;2.90;99.90
22035;DHT22;11181;51.002;4.356;2023-02-08T03:31:59;2.80;99.90
22035;DHT22;11181;51.002;4.356;2023-02-08T03:34:34;2.90;99.90
22035;DHT22;11181;51.002;4.356;2023-02-08T03:37:08;2.90;99.90
22035;DHT22;11181;51.002;4.356;2023-02-08T03:39:37;2.90;99.90
22035;DHT22;11181;51.002;4.356;2023-02-08T03:42:11;2.90;99.90
22035;DHT22;11181;51.002;4.356;2023-02-08T03:44:43;2.90;99.90
22035;DHT22;11181;51.002;4.356;2023-02-08T03:47:14;2.90;99.90
22035;DHT22;11181;51.002;4.356;2023-02-08T03:49:44;2.90;99.90
22035;DHT22;11181;51.002;4.356;2023-02-08T03:52:12;2.90;99.90
22035;DHT22;11181;51.002;4.356;2023-02-08T03:54:43;2.80;99.90
22035;DHT22;11181;51.002;4.356;2023-02-08T03:57:16;2.80;99.90
22035;DHT22;11181;51.002;4.356;2023-02-08T03:59:51;2.80;99.90
22035;DHT22;11181;51.002;4.356;2023-02-08T04:02:20;2.80;99.90
22035;DHT22;11181;51.002;4.356;2023-02-08T04:04:51;2.80;99.90
22035;DHT22;11181;51.002;4.356;2023-02-08T04:07:18;2.80;99.90
22035;DHT22;11181;51.002;4.356;2023-02-08T04:09:46;2.70;99.90
22035;DHT22;11181;51.002;4.356;2023-02-08T04:12:13;2.70;99.90
22035;DHT22;11181;51.002;4.356;2023-02-08T04:14:40;2.80;99.90
22035;DHT22;11181;51.002;4.356;2023-02-08T04:17:07;2.70;99.90
22035;DHT22;11181;51.002;4.356;2023-02-08T04:19:34;2.70;99.90
22035;DHT22;11181;51.002;4.356;2023-02-08T04:22:03;2.70;99.90
22035;DHT22;11181;51.002;4.356;2023-02-08T04:24:30;2.70;99.90
22035;DHT22;11181;51.002;4.356;2023-02-08T04:26:57;2.70;99.90
22035;DHT22;11181;51.002;4.356;2023-02-08T04:29:24;2.70;99.90
22035;DHT22;11181;51.002;4.356;2023-02-08T04:31:51;2.70;99.90
22035;DHT22;11181;51.002;4.356;2023-02-08T04:34:18;2.70;99.90
22035;DHT22;11181;51.002;4.356;2023-02-08T04:36:45;2.70;99.90
22035;DHT22;11181;51.002;4.356;2023-02-08T04:39:13;2.70;99.90
22035;DHT22;11181;51.002;4.356;2023-02-08T04:41:40;2.70;99.90
22035;DHT22;11181;51.002;4.356;2023-02-08T04:44:07;2.60;99.90
22035;DHT22;11181;51.002;4.356;2023-02-08T04:46:34;2.60;99.90
22035;DHT22;11181;51.002;4.356;2023-02-08T04:49:01;2.60;99.90
22035;DHT22;11181;51.002;4.356;2023-02-08T04:51:28;2.70;99.90
22035;DHT22;11181;51.002;4.356;2023-02-08T04:53:56;2.70;99.90
22035;DHT22;11181;51.002;4.356;2023-02-08T04:56:24;2.70;99.90
22035;DHT22;11181;51.002;4.356;2023-02-08T04:58:51;2.60;99.90
22035;DHT22;11181;51.002;4.356;2023-02-08T05:01:18;2.60;99.90
22035;DHT22;11181;51.002;4.356;2023-02-08T05:03:45;2.50;99.90
22035;DHT22;11181;51.002;4.356;2023-02-08T05:06:12;2.50;99.90
22035;DHT22;11181;51.002;4.356;2023-02-08T05:08:39;2.50;99.90
22035;DHT22;11181;51.002;4.356;2023-02-08T05:11:06;2.60;99.90
22035;DHT22;11181;51.002;4.356;2023-02-08T05:13:37;2.60;99.90
22035;DHT22;11181;51.002;4.356;2023-02-08T05:16:04;2.60;99.90
22035;DHT22;11181;51.002;4.356;2023-02-08T05:18:31;2.60;99.90
22035;DHT22;11181;51.002;4.356;2023-02-08T05:21:00;2.50;99.90
22035;DHT22;11181;51.002;4.356;2023-02-08T05:23:28;2.50;99.90
22035;DHT22;11181;51.002;4.356;2023-02-08T05:25:57;2.50;99.90
22035;DHT22;11181;51.002;4.356;2023-02-08T05:28:24;2.50;99.90
22035;DHT22;11181;51.002;4.356;2023-02-08T05:30:52;2.50;99.90
22035;DHT22;11181;51.002;4.356;2023-02-08T05:33:19;2.40;99.90
22035;DHT22;11181;51.002;4.356;2023-02-08T05:35:46;2.40;99.90
22035;DHT22;11181;51.002;4.356;2023-02-08T05:38:13;2.40;99.90
22035;DHT22;11181;51.002;4.356;2023-02-08T05:40:40;2.40;99.90
22035;DHT22;11181;51.002;4.356;2023-02-08T05:43:07;2.50;99.90
22035;DHT22;11181;51.002;4.356;2023-02-08T05:45:33;2.50;99.90
22035;DHT22;11181;51.002;4.356;2023-02-08T05:48:02;2.40;99.90
22035;DHT22;11181;51.002;4.356;2023-02-08T05:50:29;2.40;99.90
22035;DHT22;11181;51.002;4.356;2023-02-08T05:52:56;2.30;99.90
22035;DHT22;11181;51.002;4.356;2023-02-08T05:55:23;2.20;99.90
22035;DHT22;11181;51.002;4.356;2023-02-08T05:57:51;2.20;99.90
22035;DHT22;11181;51.002;4.356;2023-02-08T06:00:19;2.30;99.90
22035;DHT22;11181;51.002;4.356;2023-02-08T06:02:45;2.30;99.90
22035;DHT22;11181;51.002;4.356;2023-02-08T06:05:15;2.30;99.90
22035;DHT22;11181;51.002;4.356;2023-02-08T06:07:41;2.30;99.90
22035;DHT22;11181;51.002;4.356;2023-02-08T06:10:09;2.30;99.90
22035;DHT22;11181;51.002;4.356;2023-02-08T06:12:36;2.30;99.90
22035;DHT22;11181;51.002;4.356;2023-02-08T06:15:03;2.40;99.90
22035;DHT22;11181;51.002;4.356;2023-02-08T06:17:30;2.40;99.90
22035;DHT22;11181;51.002;4.356;2023-02-08T06:19:57;2.40;99.90
22035;DHT22;11181;51.002;4.356;2023-02-08T06:22:25;2.30;99.90
22035;DHT22;11181;51.002;4.356;2023-02-08T06:24:52;2.30;99.90
22035;DHT22;11181;51.002;4.356;2023-02-08T06:27:19;2.30;99.90
22035;DHT22;11181;51.002;4.356;2023-02-08T06:29:46;2.30;99.90
22035;DHT22;11181;51.002;4.356;2023-02-08T06:32:13;2.30;99.90
22035;DHT22;11181;51.002;4.356;2023-02-08T06:34:40;2.40;99.90
22035;DHT22;11181;51.002;4.356;2023-02-08T06:37:07;2.40;99.90
22035;DHT22;11181;51.002;4.356;2023-02-08T06:39:35;2.30;99.90
22035;DHT22;11181;51.002;4.356;2023-02-08T06:42:02;2.40;99.90
22035;DHT22;11181;51.002;4.356;2023-02-08T06:44:29;2.40;99.90
22035;DHT22;11181;51.002;4.356;2023-02-08T06:46:56;2.30;99.90
22035;DHT22;11181;51.002;4.356;2023-02-08T06:49:23;2.30;99.90
22035;DHT22;11181;51.002;4.356;2023-02-08T06:51:50;2.30;99.90
22035;DHT22;11181;51.002;4.356;2023-02-08T06:54:17;2.20;99.90
22035;DHT22;11181;51.002;4.356;2023-02-08T06:56:45;2.20;99.90
22035;DHT22;11181;51.002;4.356;2023-02-08T06:59:12;2.30;99.90
22035;DHT22;11181;51.002;4.356;2023-02-08T07:01:39;2.30;99.90
22035;DHT22;11181;51.002;4.356;2023-02-08T07:04:06;2.20;99.90
22035;DHT22;11181;51.002;4.356;2023-02-08T07:06:33;2.20;99.90
22035;DHT22;11181;51.002;4.356;2023-02-08T07:09:00;2.20;99.90
22035;DHT22;11181;51.002;4.356;2023-02-08T07:11:29;2.10;99.90
22035;DHT22;11181;51.002;4.356;2023-02-08T07:13:57;2.10;99.90
22035;DHT22;11181;51.002;4.356;2023-02-08T07:16:24;2.10;99.90
22035;DHT22;11181;51.002;4.356;2023-02-08T07:18:51;2.20;99.90
22035;DHT22;11181;51.002;4.356;2023-02-08T07:21:18;2.20;99.90
22035;DHT22;11181;51.002;4.356;2023-02-08T07:23:46;2.20;99.90
22035;DHT22;11181;51.002;4.356;2023-02-08T07:26:13;2.20;99.90
22035;DHT22;11181;51.002;4.356;2023-02-08T07:28:40;2.30;99.90
22035;DHT22;11181;51.002;4.356;2023-02-08T07:31:10;2.30;99.90
22035;DHT22;11181;51.002;4.356;2023-02-08T07:33:38;2.30;99.90
22035;DHT22;11181;51.002;4.356;2023-02-08T07:36:07;2.30;99.90
22035;DHT22;11181;51.002;4.356;2023-02-08T07:38:35;2.30;99.90
22035;DHT22;11181;51.002;4.356;2023-02-08T07:41:02;2.30;99.90
22035;DHT22;11181;51.002;4.356;2023-02-08T07:43:30;2.40;99.90
22035;DHT22;11181;51.002;4.356;2023-02-08T07:45:57;2.50;99.90
22035;DHT22;11181;51.002;4.356;2023-02-08T07:48:25;2.60;99.90
22035;DHT22;11181;51.002;4.356;2023-02-08T07:50:52;2.80;99.90
22035;DHT22;11181;51.002;4.356;2023-02-08T07:53:18;3.10;99.90
22035;DHT22;11181;51.002;4.356;2023-02-08T07:55:45;3.40;99.90
22035;DHT22;11181;51.002;4.356;2023-02-08T07:58:13;3.90;99.90
22035;DHT22;11181;51.002;4.356;2023-02-08T08:00:40;4.40;99.90
22035;DHT22;11181;51.002;4.356;2023-02-08T08:03:07;5.00;99.90
22035;DHT22;11181;51.002;4.356;2023-02-08T08:05:35;5.50;99.90
22035;DHT22;11181;51.002;4.356;2023-02-08T08:08:03;5.90;99.90
22035;DHT22;11181;51.002;4.356;2023-02-08T08:10:30;6.20;99.90
22035;DHT22;11181;51.002;4.356;2023-02-08T08:12:56;6.30;99.90
22035;DHT22;11181;51.002;4.356;2023-02-08T08:15:23;6.50;99.90
22035;DHT22;11181;51.002;4.356;2023-02-08T08:17:50;6.40;99.90
22035;DHT22;11181;51.002;4.356;2023-02-08T08:20:17;6.30;99.90
22035;DHT22;11181;51.002;4.356;2023-02-08T08:22:46;6.20;99.90
22035;DHT22;11181;51.002;4.356;2023-02-08T08:25:13;6.20;99.90
22035;DHT22;11181;51.002;4.356;2023-02-08T08:27:40;6.30;99.90
22035;DHT22;11181;51.002;4.356;2023-02-08T08:30:09;6.50;99.90
22035;DHT22;11181;51.002;4.356;2023-02-08T08:32:39;6.60;99.90
22035;DHT22;11181;51.002;4.356;2023-02-08T08:35:06;6.80;99.90
22035;DHT22;11181;51.002;4.356;2023-02-08T08:37:37;7.10;99.90
22035;DHT22;11181;51.002;4.356;2023-02-08T08:40:08;7.30;99.90
22035;DHT22;11181;51.002;4.356;2023-02-08T08:42:36;7.50;99.90
22035;DHT22;11181;51.002;4.356;2023-02-08T08:45:05;7.60;99.90
22035;DHT22;11181;51.002;4.356;2023-02-08T08:47:32;7.70;99.90
22035;DHT22;11181;51.002;4.356;2023-02-08T08:49:59;7.90;99.90
22035;DHT22;11181;51.002;4.356;2023-02-08T08:52:26;8.10;99.90
22035;DHT22;11181;51.002;4.356;2023-02-08T08:54:53;8.20;99.90
22035;DHT22;11181;51.002;4.356;2023-02-08T08:57:22;8.30;99.90
22035;DHT22;11181;51.002;4.356;2023-02-08T08:59:48;8.40;99.90
22035;DHT22;11181;51.002;4.356;2023-02-08T09:02:15;8.60;99.90
22035;DHT22;11181;51.002;4.356;2023-02-08T09:04:42;8.70;99.90
22035;DHT22;11181;51.002;4.356;2023-02-08T09:07:09;8.80;99.90
22035;DHT22;11181;51.002;4.356;2023-02-08T09:09:36;9.10;99.90
22035;DHT22;11181;51.002;4.356;2023-02-08T09:12:04;9.20;99.90
22035;DHT22;11181;51.002;4.356;2023-02-08T09:14:32;9.30;99.90
22035;DHT22;11181;51.002;4.356;2023-02-08T09:16:59;9.40;99.90
22035;DHT22;11181;51.002;4.356;2023-02-08T09:19:26;9.50;99.90
22035;DHT22;11181;51.002;4.356;2023-02-08T09:21:53;9.70;99.90
22035;DHT22;11181;51.002;4.356;2023-02-08T09:24:22;9.90;99.90
22035;DHT22;11181;51.002;4.356;2023-02-08T09:26:49;10.10;99.90
22035;DHT22;11181;51.002;4.356;2023-02-08T09:29:16;10.20;99.90
22035;DHT22;11181;51.002;4.356;2023-02-08T09:31:45;10.50;99.90
22035;DHT22;11181;51.002;4.356;2023-02-08T09:34:14;10.70;99.90
22035;DHT22;11181;51.002;4.356;2023-02-08T09:36:41;10.90;99.90
22035;DHT22;11181;51.002;4.356;2023-02-08T09:39:11;11.00;99.90
22035;DHT22;11181;51.002;4.356;2023-02-08T09:42:02;11.20;99.90
22035;DHT22;11181;51.002;4.356;2023-02-08T09:44:34;11.40;99.90
22035;DHT22;11181;51.002;4.356;2023-02-08T09:47:13;11.70;99.90
22035;DHT22;11181;51.002;4.356;2023-02-08T09:49:45;11.80;99.90
22035;DHT22;11181;51.002;4.356;2023-02-08T09:52:17;12.00;99.90
22035;DHT22;11181;51.002;4.356;2023-02-08T09:54:49;12.20;99.90
22035;DHT22;11181;51.002;4.356;2023-02-08T09:57:21;12.50;99.90
22035;DHT22;11181;51.002;4.356;2023-02-08T09:59:53;12.70;99.90
22035;DHT22;11181;51.002;4.356;2023-02-08T10:02:25;12.80;99.90
22035;DHT22;11181;51.002;4.356;2023-02-08T10:04:58;12.90;99.90
22035;DHT22;11181;51.002;4.356;2023-02-08T10:07:35;13.00;99.90
22035;DHT22;11181;51.002;4.356;2023-02-08T10:10:06;13.30;99.90
22035;DHT22;11181;51.002;4.356;2023-02-08T10:12:41;13.50;99.90
22035;DHT22;11181;51.002;4.356;2023-02-08T10:15:21;13.70;99.50
22035;DHT22;11181;51.002;4.356;2023-02-08T10:21:12;14.10;98.10
22035;DHT22;11181;51.002;4.356;2023-02-08T10:23:52;14.30;97.00
22035;DHT22;11181;51.002;4.356;2023-02-08T10:26:29;14.50;96.10
22035;DHT22;11181;51.002;4.356;2023-02-08T10:29:17;14.60;96.10
22035;DHT22;11181;51.002;4.356;2023-02-08T10:32:00;14.70;94.70
22035;DHT22;11181;51.002;4.356;2023-02-08T10:34:37;14.90;94.30
22035;DHT22;11181;51.002;4.356;2023-02-08T10:37:15;15.00;94.40
22035;DHT22;11181;51.002;4.356;2023-02-08T10:39:43;15.10;93.70
22035;DHT22;11181;51.002;4.356;2023-02-08T10:42:13;15.40;95.10
22035;DHT22;11181;51.002;4.356;2023-02-08T10:44:53;15.50;94.30
22035;DHT22;11181;51.002;4.356;2023-02-08T10:47:35;15.70;93.10
22035;DHT22;11181;51.002;4.356;2023-02-08T10:50:10;15.90;92.60
22035;DHT22;11181;51.002;4.356;2023-02-08T10:52:42;15.90;91.50
22035;DHT22;11181;51.002;4.356;2023-02-08T10:55:13;15.90;90.40
22035;DHT22;11181;51.002;4.356;2023-02-08T10:57:41;16.00;90.80
22035;DHT22;11181;51.002;4.356;2023-02-08T11:00:15;16.10;89.50
22035;DHT22;11181;51.002;4.356;2023-02-08T11:02:44;16.20;90.00
22035;DHT22;11181;51.002;4.356;2023-02-08T11:05:16;16.40;89.60
22035;DHT22;11181;51.002;4.356;2023-02-08T11:07:44;16.50;88.20
22035;DHT22;11181;51.002;4.356;2023-02-08T11:10:23;16.60;87.30
22035;DHT22;11181;51.002;4.356;2023-02-08T11:12:55;16.70;84.40
22035;DHT22;11181;51.002;4.356;2023-02-08T11:15:26;16.80;83.80
22035;DHT22;11181;51.002;4.356;2023-02-08T11:17:56;16.80;81.20
22035;DHT22;11181;51.002;4.356;2023-02-08T11:20:29;16.70;80.70
22035;DHT22;11181;51.002;4.356;2023-02-08T11:22:59;16.80;79.40
22035;DHT22;11181;51.002;4.356;2023-02-08T11:25:35;16.90;77.10
22035;DHT22;11181;51.002;4.356;2023-02-08T11:28:04;17.00;80.00
22035;DHT22;11181;51.002;4.356;2023-02-08T11:30:31;17.20;79.50
22035;DHT22;11181;51.002;4.356;2023-02-08T11:33:17;17.40;76.30
22035;DHT22;11181;51.002;4.356;2023-02-08T11:35:59;17.50;75.80
22035;DHT22;11181;51.002;4.356;2023-02-08T11:38:29;17.50;75.90
22035;DHT22;11181;51.002;4.356;2023-02-08T11:40:58;17.70;71.60
22035;DHT22;11181;51.002;4.356;2023-02-08T11:43:27;17.60;69.00
22035;DHT22;11181;51.002;4.356;2023-02-08T11:45:57;17.50;69.00
22035;DHT22;11181;51.002;4.356;2023-02-08T11:48:30;17.60;68.00
22035;DHT22;11181;51.002;4.356;2023-02-08T11:51:00;17.60;65.50
22035;DHT22;11181;51.002;4.356;2023-02-08T11:53:32;17.70;63.80
22035;DHT22;11181;51.002;4.356;2023-02-08T11:56:04;17.80;61.50
22035;DHT22;11181;51.002;4.356;2023-02-08T11:58:32;17.90;58.60
22035;DHT22;11181;51.002;4.356;2023-02-08T12:01:01;17.90;57.50
22035;DHT22;11181;51.002;4.356;2023-02-08T12:03:31;18.00;55.30
22035;DHT22;11181;51.002;4.356;2023-02-08T12:09:05;17.90;54.70
22035;DHT22;11181;51.002;4.356;2023-02-08T12:11:39;17.90;54.60
22035;DHT22;11181;51.002;4.356;2023-02-08T12:14:34;17.90;54.90
22035;DHT22;11181;51.002;4.356;2023-02-08T12:17:18;18.10;51.10
22035;DHT22;11181;51.002;4.356;2023-02-08T12:20:02;18.20;48.30
22035;DHT22;11181;51.002;4.356;2023-02-08T12:22:36;18.30;47.90
22035;DHT22;11181;51.002;4.356;2023-02-08T12:25:19;18.30;46.10
22035;DHT22;11181;51.002;4.356;2023-02-08T12:27:53;18.60;48.60
22035;DHT22;11181;51.002;4.356;2023-02-08T12:30:28;18.80;46.70
22035;DHT22;11181;51.002;4.356;2023-02-08T12:33:16;18.70;46.70
22035;DHT22;11181;51.002;4.356;2023-02-08T12:35:57;18.80;46.70
22035;DHT22;11181;51.002;4.356;2023-02-08T12:38:37;18.90;45.50
22035;DHT22;11181;51.002;4.356;2023-02-08T12:41:31;18.90;44.70
22035;DHT22;11181;51.002;4.356;2023-02-08T12:44:07;18.80;46.30
22035;DHT22;11181;51.002;4.356;2023-02-08T12:46:49;18.90;46.90
22035;DHT22;11181;51.002;4.356;2023-02-08T12:49:34;19.10;47.10
22035;DHT22;11181;51.002;4.356;2023-02-08T12:52:19;19.30;46.90
22035;DHT22;11181;51.002;4.356;2023-02-08T12:54:53;19.40;46.00
22035;DHT22;11181;51.002;4.356;2023-02-08T12:57:24;19.40;45.90
22035;DHT22;11181;51.002;4.356;2023-02-08T12:59:55;19.40;45.60
22035;DHT22;11181;51.002;4.356;2023-02-08T13:02:28;19.40;46.60
22035;DHT22;11181;51.002;4.356;2023-02-08T13:04:58;19.40;45.40
22035;DHT22;11181;51.002;4.356;2023-02-08T13:07:30;19.40;46.00
22035;DHT22;11181;51.002;4.356;2023-02-08T13:10:03;19.40;46.50
22035;DHT22;11181;51.002;4.356;2023-02-08T13:12:35;19.50;45.40
22035;DHT22;11181;51.002;4.356;2023-02-08T13:15:10;19.60;44.70
22035;DHT22;11181;51.002;4.356;2023-02-08T13:17:44;19.50;44.70
22035;DHT22;11181;51.002;4.356;2023-02-08T13:20:25;19.30;44.20
22035;DHT22;11181;51.002;4.356;2023-02-08T13:22:58;19.30;44.60
22035;DHT22;11181;51.002;4.356;2023-02-08T13:25:29;19.20;44.40
22035;DHT22;11181;51.002;4.356;2023-02-08T13:28:01;19.00;43.60
22035;DHT22;11181;51.002;4.356;2023-02-08T13:30:28;18.70;44.40
22035;DHT22;11181;51.002;4.356;2023-02-08T13:32:55;18.60;44.70
22035;DHT22;11181;51.002;4.356;2023-02-08T13:35:25;18.50;44.20
22035;DHT22;11181;51.002;4.356;2023-02-08T13:37:59;18.30;43.20
22035;DHT22;11181;51.002;4.356;2023-02-08T13:40:29;18.20;44.50
22035;DHT22;11181;51.002;4.356;2023-02-08T15:54:15;14.50;49.40
22035;DHT22;11181;51.002;4.356;2023-02-08T15:56:48;14.20;49.70
22035;DHT22;11181;51.002;4.356;2023-02-08T15:59:19;14.10;50.10
22035;DHT22;11181;51.002;4.356;2023-02-08T16:01:47;13.90;50.20
22035;DHT22;11181;51.002;4.356;2023-02-08T16:04:15;13.90;50.20
22035;DHT22;11181;51.002;4.356;2023-02-08T16:06:47;13.80;50.60
22035;DHT22;11181;51.002;4.356;2023-02-08T16:09:19;13.60;50.90
22035;DHT22;11181;51.002;4.356;2023-02-08T16:11:48;13.60;51.30
22035;DHT22;11181;51.002;4.356;2023-02-08T16:14:18;13.50;51.50
22035;DHT22;11181;51.002;4.356;2023-02-08T16:16:48;13.30;52.10
22035;DHT22;11181;51.002;4.356;2023-02-08T16:19:21;13.10;52.10
22035;DHT22;11181;51.002;4.356;2023-02-08T16:21:48;12.90;52.10
22035;DHT22;11181;51.002;4.356;2023-02-08T16:24:24;12.80;52.70
22035;DHT22;11181;51.002;4.356;2023-02-08T16:26:56;12.80;52.90
22035;DHT22;11181;51.002;4.356;2023-02-08T16:29:26;12.70;52.90
22035;DHT22;11181;51.002;4.356;2023-02-08T16:32:00;12.60;53.10
22035;DHT22;11181;51.002;4.356;2023-02-08T16:34:29;12.60;52.90
22035;DHT22;11181;51.002;4.356;2023-02-08T16:36:57;12.60;52.90
22035;DHT22;11181;51.002;4.356;2023-02-08T16:39:51;12.60;52.90
22035;DHT22;11181;51.002;4.356;2023-02-08T16:42:30;12.60;53.20
22035;DHT22;11181;51.002;4.356;2023-02-08T16:45:18;12.50;53.10
22035;DHT22;11181;51.002;4.356;2023-02-08T16:47:49;12.50;53.50
22035;DHT22;11181;51.002;4.356;2023-02-08T16:50:18;12.50;53.80
22035;DHT22;11181;51.002;4.356;2023-02-08T16:52:50;12.50;53.90
22035;DHT22;11181;51.002;4.356;2023-02-08T16:55:21;12.50;54.10
22035;DHT22;11181;51.002;4.356;2023-02-08T16:57:51;12.40;54.30
22035;DHT22;11181;51.002;4.356;2023-02-08T17:00:21;12.40;54.40
22035;DHT22;11181;51.002;4.356;2023-02-08T17:02:49;12.30;54.70
22035;DHT22;11181;51.002;4.356;2023-02-08T17:05:17;12.30;56.00
22035;DHT22;11181;51.002;4.356;2023-02-08T17:07:44;12.20;56.30
22035;DHT22;11181;51.002;4.356;2023-02-08T17:10:20;12.10;56.30
22035;DHT22;11181;51.002;4.356;2023-02-08T17:12:49;12.00;57.50
22035;DHT22;11181;51.002;4.356;2023-02-08T17:15:16;11.90;58.00
22035;DHT22;11181;51.002;4.356;2023-02-08T17:17:45;11.80;58.90
22035;DHT22;11181;51.002;4.356;2023-02-08T17:20:18;11.70;59.20
22035;DHT22;11181;51.002;4.356;2023-02-08T17:22:45;11.40;59.30
22035;DHT22;11181;51.002;4.356;2023-02-08T17:25:12;11.30;59.40
22035;DHT22;11181;51.002;4.356;2023-02-08T17:27:45;11.20;59.10
22035;DHT22;11181;51.002;4.356;2023-02-08T17:30:19;11.20;59.50
22035;DHT22;11181;51.002;4.356;2023-02-08T17:32:47;11.10;60.30
22035;DHT22;11181;51.002;4.356;2023-02-08T17:35:14;11.10;60.90
22035;DHT22;11181;51.002;4.356;2023-02-08T17:37:43;11.00;60.80
22035;DHT22;11181;51.002;4.356;2023-02-08T17:40:11;10.90;61.70
22035;DHT22;11181;51.002;4.356;2023-02-08T17:42:38;10.80;62.60
22035;DHT22;11181;51.002;4.356;2023-02-08T17:45:06;10.70;63.70
22035;DHT22;11181;51.002;4.356;2023-02-08T17:47:35;10.60;63.90
22035;DHT22;11181;51.002;4.356;2023-02-08T17:50:06;10.50;63.20
22035;DHT22;11181;51.002;4.356;2023-02-08T17:52:34;10.40;63.20
22035;DHT22;11181;51.002;4.356;2023-02-08T17:55:02;10.30;63.30
22035;DHT22;11181;51.002;4.356;2023-02-08T17:57:30;10.30;63.10
22035;DHT22;11181;51.002;4.356;2023-02-08T17:59:57;10.30;63.00
22035;DHT22;11181;51.002;4.356;2023-02-08T18:02:24;10.20;62.50
22035;DHT22;11181;51.002;4.356;2023-02-08T18:04:52;10.20;61.90
22035;DHT22;11181;51.002;4.356;2023-02-08T18:07:19;10.20;62.50
22035;DHT22;11181;51.002;4.356;2023-02-08T18:09:46;10.20;63.70
22035;DHT22;11181;51.002;4.356;2023-02-08T18:12:13;10.10;64.80
22035;DHT22;11181;51.002;4.356;2023-02-08T18:14:40;10.00;64.60
22035;DHT22;11181;51.002;4.356;2023-02-08T18:17:07;9.90;66.30
22035;DHT22;11181;51.002;4.356;2023-02-08T18:19:34;9.70;67.80
22035;DHT22;11181;51.002;4.356;2023-02-08T18:22:02;9.60;68.40